createdAt,value
2019-02-07T00:00:03.864Z,79.81
2019-02-07T00:04:58.538Z,80.42
2019-02-07T00:09:53.204Z,80.66
2019-02-07T00:14:47.934Z,80.25
2019-02-07T00:19:42.671Z,80.37
2019-02-07T00:24:42.956Z,80.17
2019-02-07T00:29:34.444Z,80.22
2019-02-07T00:34:29.121Z,80.32
2019-02-07T00:39:23.727Z,79.78
2019-02-07T00:44:18.322Z,79.94
2019-02-07T00:49:12.988Z,79.98
2019-02-07T00:54:07.729Z,79.83
2019-02-07T00:59:02.480Z,79.91
2019-02-07T01:03:57.076Z,79.71
2019-02-07T01:08:51.745Z,79.64
2019-02-07T01:13:46.363Z,79.12
2019-02-07T01:18:41.008Z,79.26
2019-02-07T01:23:35.602Z,79.10
2019-02-07T01:28:30.263Z,78.72
2019-02-07T01:33:25.153Z,78.90
2019-02-07T01:38:19.718Z,78.97
2019-02-07T01:43:14.317Z,79.06
2019-02-07T01:48:08.906Z,78.55
2019-02-07T01:53:03.511Z,78.52
2019-02-07T01:57:58.157Z,78.48
2019-02-07T02:02:52.758Z,78.80
2019-02-07T02:07:47.561Z,79.24
2019-02-07T02:12:42.295Z,79.74
2019-02-07T02:17:36.881Z,80.62
2019-02-07T02:22:31.480Z,80.84
2019-02-07T02:27:26.507Z,80.31
2019-02-07T02:32:21.111Z,80.22
2019-02-07T02:37:15.689Z,80.25
2019-02-07T02:42:10.302Z,80.08
2019-02-07T02:47:05.047Z,79.83
2019-02-07T02:51:59.704Z,79.62
2019-02-07T02:56:54.282Z,79.67
2019-02-07T03:01:50.519Z,79.75
2019-02-07T03:06:46.813Z,79.76
2019-02-07T03:11:43.802Z,79.94
2019-02-07T03:16:38.243Z,80.31
2019-02-07T03:21:37.202Z,80.16
2019-02-07T03:26:42.398Z,80.10
2019-02-07T03:31:41.702Z,80.46
2019-02-07T03:36:37.924Z,80.79
2019-02-07T03:41:34.160Z,80.92
2019-02-07T03:46:45.389Z,80.85
2019-02-07T03:51:57.735Z,80.87
2019-02-07T03:57:05.740Z,80.54
2019-02-07T04:02:17.406Z,80.34
2019-02-07T04:07:16.547Z,80.00
2019-02-07T04:12:18.662Z,79.92
2019-02-07T04:17:15.003Z,79.77
2019-02-07T04:22:09.450Z,79.83
2019-02-07T04:27:17.467Z,80.35
2019-02-07T04:32:28.745Z,80.63
2019-02-07T04:37:30.481Z,80.53
2019-02-07T04:42:42.747Z,81.10
2019-02-07T04:47:41.441Z,81.29
2019-02-07T04:52:53.965Z,81.20
2019-02-07T04:57:56.254Z,80.92
2019-02-07T05:02:50.624Z,80.96
2019-02-07T05:07:52.813Z,80.82
2019-02-07T05:12:49.064Z,80.38
2019-02-07T05:17:57.210Z,79.81
2019-02-07T05:23:09.535Z,79.65
2019-02-07T05:28:05.851Z,80.14
2019-02-07T05:33:02.104Z,80.45
2019-02-07T05:38:03.770Z,80.42
2019-02-07T05:43:00.039Z,80.35
2019-02-07T05:47:59.269Z,80.16
2019-02-07T05:53:11.570Z,80.22
2019-02-07T05:58:10.921Z,80.03
2019-02-07T06:03:10.397Z,80.54
2019-02-07T06:08:09.473Z,80.32
2019-02-07T06:13:21.651Z,80.20
2019-02-07T06:18:26.830Z,80.08
2019-02-07T06:23:28.640Z,80.12
2019-02-07T06:28:41.037Z,80.31
2019-02-07T06:33:53.429Z,79.90
2019-02-07T06:39:05.869Z,79.47
2019-02-07T06:44:03.168Z,79.31
2019-02-07T06:49:01.886Z,78.85
2019-02-07T06:53:58.131Z,78.86
2019-02-07T06:58:55.086Z,78.90
2019-02-07T07:03:50.418Z,78.49
2019-02-07T07:08:56.316Z,78.09
2019-02-07T07:13:52.596Z,78.24
2019-02-07T07:19:05.056Z,78.29
2019-02-07T07:23:59.412Z,78.04
2019-02-07T07:29:13.976Z,78.14
2019-02-07T07:34:11.615Z,77.84
2019-02-07T07:39:09.143Z,77.83
2019-02-07T07:44:15.512Z,77.75
2019-02-07T07:49:11.719Z,77.33
2019-02-07T07:54:24.562Z,76.99
2019-02-07T07:59:20.774Z,76.90
2019-02-07T08:04:15.245Z,76.78
2019-02-07T08:09:22.710Z,76.28
2019-02-07T08:14:19.007Z,75.82
2019-02-07T08:19:19.234Z,74.89
2019-02-07T08:24:30.627Z,74.62
2019-02-07T08:29:29.583Z,74.19
2019-02-07T08:34:40.376Z,73.98
2019-02-07T08:39:53.325Z,74.20
2019-02-07T08:44:55.137Z,73.42
2019-02-07T08:49:52.481Z,73.92
2019-02-07T08:54:51.301Z,73.50
2019-02-07T08:59:50.008Z,73.04
2019-02-07T09:04:55.721Z,72.61
2019-02-07T09:09:51.961Z,72.37
2019-02-07T09:15:07.051Z,71.31
2019-02-07T09:20:03.385Z,72.07
2019-02-07T09:25:03.295Z,72.21
2019-02-07T09:30:11.739Z,71.94
2019-02-07T09:35:13.804Z,71.75
2019-02-07T09:40:29.137Z,72.10
2019-02-07T09:45:45.519Z,72.00
2019-02-07T09:50:42.393Z,72.91
2019-02-07T09:55:48.107Z,71.70
2019-02-07T10:01:01.070Z,72.06
2019-02-07T10:06:12.692Z,71.94
2019-02-07T10:11:11.980Z,70.72
2019-02-07T10:16:08.262Z,70.04
2019-02-07T10:21:13.312Z,70.05
2019-02-07T10:26:25.820Z,70.88
2019-02-07T10:31:25.572Z,70.09
2019-02-07T10:36:26.809Z,69.89
2019-02-07T10:41:26.290Z,69.22
2019-02-07T10:46:30.154Z,68.56
2019-02-07T10:51:43.825Z,68.90
2019-02-07T10:56:38.668Z,68.31
2019-02-07T11:01:36.483Z,66.95
2019-02-07T11:06:50.957Z,66.16
2019-02-07T11:11:47.140Z,65.59
2019-02-07T11:16:46.214Z,67.01
2019-02-07T11:21:47.095Z,67.32
2019-02-07T11:26:43.321Z,67.25
2019-02-07T11:31:42.208Z,67.66
2019-02-07T11:36:39.020Z,68.86
2019-02-07T11:41:50.154Z,68.97
2019-02-07T11:46:48.858Z,68.78
2019-02-07T11:51:51.371Z,67.87
2019-02-07T11:57:04.063Z,68.09
2019-02-07T12:02:09.070Z,69.70
2019-02-07T12:07:22.252Z,70.73
2019-02-07T12:12:30.745Z,71.41
2019-02-07T12:17:42.891Z,71.25
2019-02-07T12:22:48.091Z,70.24
2019-02-07T12:27:44.869Z,69.91
2019-02-07T12:32:41.123Z,70.55
2019-02-07T12:37:37.445Z,73.46
2019-02-07T12:42:47.945Z,75.05
2019-02-07T12:48:02.313Z,74.87
2019-02-07T12:53:16.017Z,73.94
2019-02-07T12:58:20.095Z,75.13
2019-02-07T13:03:19.700Z,76.76
2019-02-07T13:08:32.737Z,77.79
2019-02-07T13:13:32.530Z,79.51
2019-02-07T13:18:37.416Z,79.01
2019-02-07T13:23:49.923Z,80.10
2019-02-07T13:28:46.599Z,81.45
2019-02-07T13:33:59.493Z,84.57
2019-02-07T13:39:11.815Z,84.59
2019-02-07T13:44:19.304Z,84.06
2019-02-07T13:49:31.947Z,84.37
2019-02-07T13:54:29.635Z,83.88
2019-02-07T13:59:29.002Z,84.30
2019-02-07T14:04:44.249Z,84.99
2019-02-07T14:09:50.201Z,85.39
2019-02-07T14:14:46.749Z,85.13
2019-02-07T14:20:03.725Z,85.01
2019-02-07T14:25:09.722Z,85.31
2019-02-07T14:30:09.468Z,86.41
2019-02-07T14:35:11.301Z,86.16
2019-02-07T14:40:18.261Z,85.96
2019-02-07T14:45:23.745Z,85.23
2019-02-07T14:50:19.805Z,85.26
2019-02-07T14:55:15.201Z,85.64
2019-02-07T15:00:26.242Z,85.67
2019-02-07T15:05:21.401Z,86.24
2019-02-07T15:10:21.278Z,87.00
2019-02-07T15:15:20.470Z,87.00
2019-02-07T15:20:26.103Z,87.42
2019-02-07T15:25:19.906Z,87.42
2019-02-07T15:30:42.826Z,87.39
2019-02-07T15:35:34.747Z,87.69
2019-02-07T15:40:31.238Z,87.63
2019-02-07T15:45:26.915Z,87.91
2019-02-07T15:50:37.852Z,88.54
2019-02-07T15:55:27.937Z,89.14
2019-02-07T16:00:31.026Z,89.59
2019-02-07T16:05:25.974Z,89.94
2019-02-07T16:10:22.495Z,90.22
2019-02-07T16:15:18.178Z,89.88
2019-02-07T16:20:22.040Z,89.96
2019-02-07T16:25:18.386Z,90.26
2019-02-07T16:30:22.371Z,90.17
2019-02-07T16:35:20.571Z,90.60
2019-02-07T16:40:22.427Z,91.18
2019-02-07T16:45:27.024Z,90.81
2019-02-07T16:50:31.514Z,90.48
2019-02-07T16:55:26.703Z,91.43
2019-02-07T17:00:25.877Z,91.63
2019-02-07T17:05:24.256Z,91.38
2019-02-07T17:10:26.365Z,91.21
2019-02-07T17:15:23.675Z,91.02
2019-02-07T17:20:31.066Z,91.27
2019-02-07T17:25:26.539Z,91.81
2019-02-07T17:30:23.063Z,91.95
2019-02-07T17:35:18.743Z,91.82
2019-02-07T17:40:20.444Z,91.56
2019-02-07T17:45:19.582Z,91.06
2019-02-07T17:50:19.637Z,90.83
2019-02-07T17:55:18.390Z,90.45
2019-02-07T18:00:30.484Z,90.51
2019-02-07T18:05:25.140Z,90.33
2019-02-07T18:10:19.984Z,89.97
2019-02-07T18:15:15.004Z,90.14
2019-02-07T18:20:21.728Z,90.15
2019-02-07T18:25:16.756Z,89.57
2019-02-07T18:30:20.591Z,89.18
2019-02-07T18:35:17.084Z,88.46
2019-02-07T18:40:19.100Z,88.08
2019-02-07T18:45:17.981Z,87.81
2019-02-07T18:50:26.184Z,87.02
2019-02-07T18:55:20.849Z,87.22
2019-02-07T19:00:29.099Z,86.83
2019-02-07T19:05:25.040Z,85.73
2019-02-07T19:10:23.472Z,87.04
2019-02-07T19:15:31.105Z,87.26
2019-02-07T19:20:25.706Z,87.96
2019-02-07T19:25:20.704Z,87.96
2019-02-07T19:30:26.558Z,88.11
2019-02-07T19:35:21.215Z,88.51
2019-02-07T19:40:21.069Z,88.05
2019-02-07T19:45:19.644Z,87.39
2019-02-07T19:50:26.976Z,87.24
2019-02-07T19:55:32.928Z,86.19
2019-02-07T20:00:33.740Z,86.99
2019-02-07T20:05:28.742Z,86.65
2019-02-07T20:10:27.139Z,86.13
2019-02-07T20:15:36.174Z,87.39
2019-02-07T20:20:32.076Z,88.48
2019-02-07T20:25:26.920Z,87.96
2019-02-07T20:30:30.762Z,88.73
2019-02-07T20:35:25.634Z,89.65
2019-02-07T20:40:30.997Z,88.93
2019-02-07T20:45:26.791Z,89.19
2019-02-07T20:50:25.588Z,88.99
2019-02-07T20:55:21.099Z,89.10
2019-02-07T21:00:34.098Z,88.73
2019-02-07T21:05:31.373Z,88.58
2019-02-07T21:10:33.055Z,88.36
2019-02-07T21:15:28.087Z,88.28
2019-02-07T21:20:31.718Z,88.11
2019-02-07T21:25:39.673Z,87.83
2019-02-07T21:30:34.934Z,87.64
2019-02-07T21:35:31.575Z,87.07
2019-02-07T21:40:31.087Z,85.63
2019-02-07T21:45:25.964Z,85.89
2019-02-07T21:50:27.100Z,85.29
2019-02-07T21:55:25.533Z,85.45
2019-02-07T22:00:38.861Z,86.04
2019-02-07T22:05:33.674Z,84.47
2019-02-07T22:10:28.480Z,83.98
2019-02-07T22:15:26.899Z,84.28
2019-02-07T22:20:25.364Z,84.77
2019-02-07T22:25:21.263Z,84.77
2019-02-07T22:30:31.385Z,85.41
2019-02-07T22:35:26.033Z,85.41
2019-02-07T22:40:23.622Z,85.53
2019-02-07T22:45:22.079Z,85.61
2019-02-07T22:50:23.907Z,85.72
2019-02-07T22:55:18.991Z,86.27
2019-02-07T23:00:36.072Z,86.16
2019-02-07T23:05:30.659Z,87.45
2019-02-07T23:10:33.510Z,87.46
2019-02-07T23:15:28.759Z,88.15
2019-02-07T23:20:23.467Z,88.17
2019-02-07T23:25:18.049Z,88.34
2019-02-07T23:30:20.982Z,88.99
2019-02-07T23:35:17.094Z,88.70
2019-02-07T23:40:21.089Z,88.77
2019-02-07T23:45:18.934Z,89.23
2019-02-07T23:50:14.831Z,88.19
2019-02-07T23:55:15.509Z,88.02
